sensor_id;sensor_type;location;lat;lon;timestamp;P1;durP1;ratioP1;P2;durP2;ratioP2
53781;SDS011;39692;53.114;7.060;2023-04-25T00:01:47;8.57;;;2.25;;
53781;SDS011;39692;53.114;7.060;2023-04-25T00:04:13;5.50;;;2.13;;
53781;SDS011;39692;53.114;7.060;2023-04-25T00:06:39;4.60;;;1.95;;
53781;SDS011;39692;53.114;7.060;2023-04-25T00:09:05;9.82;;;1.52;;
53781;SDS011;39692;53.114;7.060;2023-04-25T00:11:35;9.35;;;2.78;;
53781;SDS011;39692;53.114;7.060;2023-04-25T00:14:02;5.45;;;2.20;;
53781;SDS011;39692;53.114;7.060;2023-04-25T00:16:28;7.40;;;2.22;;
53781;SDS011;39692;53.114;7.060;2023-04-25T00:18:58;10.70;;;2.10;;
53781;SDS011;39692;53.114;7.060;2023-04-25T00:21:24;7.22;;;2.63;;
53781;SDS011;39692;53.114;7.060;2023-04-25T00:23:51;8.07;;;2.50;;
53781;SDS011;39692;53.114;7.060;2023-04-25T00:26:18;5.88;;;2.03;;
53781;SDS011;39692;53.114;7.060;2023-04-25T00:28:46;7.18;;;1.83;;
53781;SDS011;39692;53.114;7.060;2023-04-25T00:31:12;9.10;;;2.30;;
53781;SDS011;39692;53.114;7.060;2023-04-25T00:33:38;7.60;;;2.33;;
53781;SDS011;39692;53.114;7.060;2023-04-25T00:49:18;6.63;;;1.95;;
53781;SDS011;39692;53.114;7.060;2023-04-25T00:51:44;5.28;;;1.98;;
53781;SDS011;39692;53.114;7.060;2023-04-25T00:54:11;6.97;;;1.80;;
53781;SDS011;39692;53.114;7.060;2023-04-25T00:56:38;11.13;;;2.22;;
53781;SDS011;39692;53.114;7.060;2023-04-25T00:59:04;7.60;;;1.98;;
53781;SDS011;39692;53.114;7.060;2023-04-25T01:01:30;6.35;;;2.42;;
53781;SDS011;39692;53.114;7.060;2023-04-25T01:03:56;13.23;;;2.35;;
53781;SDS011;39692;53.114;7.060;2023-04-25T01:06:24;12.07;;;1.88;;
53781;SDS011;39692;53.114;7.060;2023-04-25T01:08:50;7.20;;;2.40;;
53781;SDS011;39692;53.114;7.060;2023-04-25T01:11:17;6.85;;;2.10;;
53781;SDS011;39692;53.114;7.060;2023-04-25T01:13:43;12.10;;;2.10;;
53781;SDS011;39692;53.114;7.060;2023-04-25T01:16:11;6.28;;;2.03;;
53781;SDS011;39692;53.114;7.060;2023-04-25T01:18:38;4.93;;;1.10;;
53781;SDS011;39692;53.114;7.060;2023-04-25T01:23:34;5.85;;;1.52;;
53781;SDS011;39692;53.114;7.060;2023-04-25T01:26:01;6.43;;;1.77;;
53781;SDS011;39692;53.114;7.060;2023-04-25T01:28:27;7.50;;;2.13;;
53781;SDS011;39692;53.114;7.060;2023-04-25T01:30:53;6.80;;;1.67;;
53781;SDS011;39692;53.114;7.060;2023-04-25T01:33:20;5.38;;;1.63;;
53781;SDS011;39692;53.114;7.060;2023-04-25T01:35:47;3.83;;;1.50;;
53781;SDS011;39692;53.114;7.060;2023-04-25T01:38:14;8.48;;;2.50;;
53781;SDS011;39692;53.114;7.060;2023-04-25T01:40:40;12.05;;;1.73;;
53781;SDS011;39692;53.114;7.060;2023-04-25T01:43:07;4.72;;;1.40;;
53781;SDS011;39692;53.114;7.060;2023-04-25T01:45:36;6.45;;;1.58;;
53781;SDS011;39692;53.114;7.060;2023-04-25T01:48:05;6.07;;;1.90;;
53781;SDS011;39692;53.114;7.060;2023-04-25T01:50:31;5.40;;;1.67;;
53781;SDS011;39692;53.114;7.060;2023-04-25T01:52:57;4.38;;;1.45;;
53781;SDS011;39692;53.114;7.060;2023-04-25T02:02:08;8.80;;;2.03;;
53781;SDS011;39692;53.114;7.060;2023-04-25T02:04:34;4.13;;;1.98;;
53781;SDS011;39692;53.114;7.060;2023-04-25T02:07:00;4.57;;;0.88;;
53781;SDS011;39692;53.114;7.060;2023-04-25T02:09:26;4.22;;;1.40;;
53781;SDS011;39692;53.114;7.060;2023-04-25T02:11:52;5.47;;;1.10;;
53781;SDS011;39692;53.114;7.060;2023-04-25T02:14:18;8.57;;;1.27;;
53781;SDS011;39692;53.114;7.060;2023-04-25T02:16:46;6.20;;;1.50;;
53781;SDS011;39692;53.114;7.060;2023-04-25T02:19:12;6.85;;;1.58;;
53781;SDS011;39692;53.114;7.060;2023-04-25T02:21:38;10.05;;;1.65;;
53781;SDS011;39692;53.114;7.060;2023-04-25T02:24:05;4.28;;;0.95;;
53781;SDS011;39692;53.114;7.060;2023-04-25T02:26:31;7.35;;;1.75;;
53781;SDS011;39692;53.114;7.060;2023-04-25T02:28:57;1.75;;;0.70;;
53781;SDS011;39692;53.114;7.060;2023-04-25T02:31:23;5.47;;;1.27;;
53781;SDS011;39692;53.114;7.060;2023-04-25T02:33:49;6.88;;;1.52;;
53781;SDS011;39692;53.114;7.060;2023-04-25T02:36:15;7.90;;;1.63;;
53781;SDS011;39692;53.114;7.060;2023-04-25T02:38:41;5.13;;;1.92;;
53781;SDS011;39692;53.114;7.060;2023-04-25T02:41:07;2.80;;;1.20;;
53781;SDS011;39692;53.114;7.060;2023-04-25T02:43:33;6.82;;;1.65;;
53781;SDS011;39692;53.114;7.060;2023-04-25T02:45:59;5.22;;;1.48;;
53781;SDS011;39692;53.114;7.060;2023-04-25T02:48:25;5.82;;;1.60;;
53781;SDS011;39692;53.114;7.060;2023-04-25T02:50:51;5.30;;;1.83;;
53781;SDS011;39692;53.114;7.060;2023-04-25T02:53:17;5.68;;;1.70;;
53781;SDS011;39692;53.114;7.060;2023-04-25T02:55:43;6.75;;;0.95;;
53781;SDS011;39692;53.114;7.060;2023-04-25T02:58:10;11.20;;;2.28;;
53781;SDS011;39692;53.114;7.060;2023-04-25T03:00:36;3.08;;;0.80;;
53781;SDS011;39692;53.114;7.060;2023-04-25T03:03:02;6.50;;;1.60;;
53781;SDS011;39692;53.114;7.060;2023-04-25T03:05:28;8.63;;;1.60;;
53781;SDS011;39692;53.114;7.060;2023-04-25T03:07:54;7.47;;;1.77;;
53781;SDS011;39692;53.114;7.060;2023-04-25T03:10:20;3.63;;;0.98;;
53781;SDS011;39692;53.114;7.060;2023-04-25T03:12:46;7.88;;;2.15;;
53781;SDS011;39692;53.114;7.060;2023-04-25T03:15:12;3.45;;;1.27;;
53781;SDS011;39692;53.114;7.060;2023-04-25T03:17:38;7.40;;;1.67;;
53781;SDS011;39692;53.114;7.060;2023-04-25T03:20:06;3.20;;;1.13;;
53781;SDS011;39692;53.114;7.060;2023-04-25T03:22:33;1.95;;;0.88;;
53781;SDS011;39692;53.114;7.060;2023-04-25T03:24:59;3.20;;;1.17;;
53781;SDS011;39692;53.114;7.060;2023-04-25T03:27:25;2.88;;;1.33;;
53781;SDS011;39692;53.114;7.060;2023-04-25T03:29:51;4.68;;;1.13;;
53781;SDS011;39692;53.114;7.060;2023-04-25T03:32:17;3.00;;;1.50;;
53781;SDS011;39692;53.114;7.060;2023-04-25T03:34:43;4.28;;;1.52;;
53781;SDS011;39692;53.114;7.060;2023-04-25T03:37:09;4.55;;;0.88;;
53781;SDS011;39692;53.114;7.060;2023-04-25T03:39:35;2.28;;;0.95;;
53781;SDS011;39692;53.114;7.060;2023-04-25T03:42:03;6.57;;;1.23;;
53781;SDS011;39692;53.114;7.060;2023-04-25T03:44:29;3.08;;;0.93;;
53781;SDS011;39692;53.114;7.060;2023-04-25T03:46:55;7.68;;;1.38;;
53781;SDS011;39692;53.114;7.060;2023-04-25T03:49:21;5.13;;;1.23;;
53781;SDS011;39692;53.114;7.060;2023-04-25T03:51:47;4.07;;;1.48;;
53781;SDS011;39692;53.114;7.060;2023-04-25T03:54:13;2.58;;;0.85;;
53781;SDS011;39692;53.114;7.060;2023-04-25T03:56:39;4.22;;;1.00;;
53781;SDS011;39692;53.114;7.060;2023-04-25T03:59:05;3.90;;;0.82;;
53781;SDS011;39692;53.114;7.060;2023-04-25T04:01:32;2.25;;;1.27;;
53781;SDS011;39692;53.114;7.060;2023-04-25T04:03:58;6.43;;;1.48;;
53781;SDS011;39692;53.114;7.060;2023-04-25T04:06:25;1.88;;;0.70;;
53781;SDS011;39692;53.114;7.060;2023-04-25T04:08:51;3.22;;;0.80;;
53781;SDS011;39692;53.114;7.060;2023-04-25T04:11:18;1.40;;;0.82;;
53781;SDS011;39692;53.114;7.060;2023-04-25T04:13:45;3.03;;;0.75;;
53781;SDS011;39692;53.114;7.060;2023-04-25T04:16:11;4.72;;;1.20;;
53781;SDS011;39692;53.114;7.060;2023-04-25T04:18:37;4.88;;;1.20;;
53781;SDS011;39692;53.114;7.060;2023-04-25T04:21:03;3.17;;;0.85;;
53781;SDS011;39692;53.114;7.060;2023-04-25T04:23:30;2.72;;;1.05;;
53781;SDS011;39692;53.114;7.060;2023-04-25T04:25:56;2.85;;;1.10;;
53781;SDS011;39692;53.114;7.060;2023-04-25T04:28:22;2.38;;;1.02;;
53781;SDS011;39692;53.114;7.060;2023-04-25T04:30:48;6.80;;;1.48;;
53781;SDS011;39692;53.114;7.060;2023-04-25T04:33:16;4.53;;;1.13;;
53781;SDS011;39692;53.114;7.060;2023-04-25T04:35:44;8.48;;;0.95;;
53781;SDS011;39692;53.114;7.060;2023-04-25T04:38:11;1.85;;;0.85;;
53781;SDS011;39692;53.114;7.060;2023-04-25T04:40:40;2.55;;;1.00;;
53781;SDS011;39692;53.114;7.060;2023-04-25T04:43:08;14.38;;;1.77;;
53781;SDS011;39692;53.114;7.060;2023-04-25T04:45:35;12.95;;;1.52;;
53781;SDS011;39692;53.114;7.060;2023-04-25T04:48:04;5.93;;;0.93;;
53781;SDS011;39692;53.114;7.060;2023-04-25T04:50:32;8.07;;;1.42;;
53781;SDS011;39692;53.114;7.060;2023-04-25T04:52:58;3.90;;;1.23;;
53781;SDS011;39692;53.114;7.060;2023-04-25T04:55:25;4.55;;;0.82;;
53781;SDS011;39692;53.114;7.060;2023-04-25T04:57:51;2.97;;;1.00;;
53781;SDS011;39692;53.114;7.060;2023-04-25T05:00:17;4.75;;;1.10;;
53781;SDS011;39692;53.114;7.060;2023-04-25T05:02:43;2.13;;;0.95;;
53781;SDS011;39692;53.114;7.060;2023-04-25T05:05:09;4.40;;;0.70;;
53781;SDS011;39692;53.114;7.060;2023-04-25T05:07:35;2.20;;;1.08;;
53781;SDS011;39692;53.114;7.060;2023-04-25T05:10:01;4.25;;;0.75;;
53781;SDS011;39692;53.114;7.060;2023-04-25T05:12:27;6.53;;;0.98;;
53781;SDS011;39692;53.114;7.060;2023-04-25T05:14:53;10.43;;;1.38;;
53781;SDS011;39692;53.114;7.060;2023-04-25T05:17:19;5.47;;;1.73;;
53781;SDS011;39692;53.114;7.060;2023-04-25T05:19:45;5.95;;;0.88;;
53781;SDS011;39692;53.114;7.060;2023-04-25T05:22:11;3.78;;;0.98;;
53781;SDS011;39692;53.114;7.060;2023-04-25T05:24:37;2.75;;;0.95;;
53781;SDS011;39692;53.114;7.060;2023-04-25T05:27:04;3.30;;;1.23;;
53781;SDS011;39692;53.114;7.060;2023-04-25T05:29:30;4.65;;;0.80;;
53781;SDS011;39692;53.114;7.060;2023-04-25T05:31:56;1.75;;;1.27;;
53781;SDS011;39692;53.114;7.060;2023-04-25T05:34:22;1.70;;;0.60;;
53781;SDS011;39692;53.114;7.060;2023-04-25T05:36:48;2.15;;;0.85;;
53781;SDS011;39692;53.114;7.060;2023-04-25T05:39:18;4.10;;;1.20;;
53781;SDS011;39692;53.114;7.060;2023-04-25T05:41:44;5.10;;;1.13;;
53781;SDS011;39692;53.114;7.060;2023-04-25T05:44:10;4.30;;;1.20;;
53781;SDS011;39692;53.114;7.060;2023-04-25T05:46:36;1.02;;;0.68;;
53781;SDS011;39692;53.114;7.060;2023-04-25T05:49:02;3.05;;;1.10;;
53781;SDS011;39692;53.114;7.060;2023-04-25T05:51:28;6.68;;;0.88;;
53781;SDS011;39692;53.114;7.060;2023-04-25T05:53:54;2.05;;;0.70;;
53781;SDS011;39692;53.114;7.060;2023-04-25T05:56:20;2.35;;;0.95;;
53781;SDS011;39692;53.114;7.060;2023-04-25T05:58:46;4.47;;;0.90;;
53781;SDS011;39692;53.114;7.060;2023-04-25T06:01:12;3.00;;;1.02;;
53781;SDS011;39692;53.114;7.060;2023-04-25T06:03:39;4.57;;;0.98;;
53781;SDS011;39692;53.114;7.060;2023-04-25T06:06:07;2.40;;;1.05;;
53781;SDS011;39692;53.114;7.060;2023-04-25T06:08:34;3.35;;;1.77;;
53781;SDS011;39692;53.114;7.060;2023-04-25T06:11:00;3.67;;;0.98;;
53781;SDS011;39692;53.114;7.060;2023-04-25T06:13:26;2.13;;;0.93;;
53781;SDS011;39692;53.114;7.060;2023-04-25T06:15:52;3.67;;;0.93;;
53781;SDS011;39692;53.114;7.060;2023-04-25T06:18:18;4.22;;;1.20;;
53781;SDS011;39692;53.114;7.060;2023-04-25T06:20:44;2.97;;;1.02;;
53781;SDS011;39692;53.114;7.060;2023-04-25T06:23:10;2.28;;;0.60;;
53781;SDS011;39692;53.114;7.060;2023-04-25T06:25:36;2.53;;;0.98;;
53781;SDS011;39692;53.114;7.060;2023-04-25T06:28:03;2.28;;;1.20;;
53781;SDS011;39692;53.114;7.060;2023-04-25T06:30:29;8.13;;;1.65;;
53781;SDS011;39692;53.114;7.060;2023-04-25T06:32:55;6.28;;;1.02;;
53781;SDS011;39692;53.114;7.060;2023-04-25T06:35:21;4.15;;;0.80;;
53781;SDS011;39692;53.114;7.060;2023-04-25T06:37:47;2.50;;;1.58;;
53781;SDS011;39692;53.114;7.060;2023-04-25T06:40:13;4.68;;;1.10;;
53781;SDS011;39692;53.114;7.060;2023-04-25T06:42:39;4.53;;;0.93;;
53781;SDS011;39692;53.114;7.060;2023-04-25T06:45:06;4.25;;;0.93;;
53781;SDS011;39692;53.114;7.060;2023-04-25T06:47:32;4.45;;;0.85;;
53781;SDS011;39692;53.114;7.060;2023-04-25T06:49:58;7.20;;;1.67;;
53781;SDS011;39692;53.114;7.060;2023-04-25T06:52:24;3.53;;;0.57;;
53781;SDS011;39692;53.114;7.060;2023-04-25T06:54:50;3.83;;;0.95;;
53781;SDS011;39692;53.114;7.060;2023-04-25T06:57:16;6.47;;;1.23;;
53781;SDS011;39692;53.114;7.060;2023-04-25T06:59:42;1.88;;;1.20;;
53781;SDS011;39692;53.114;7.060;2023-04-25T07:02:08;3.05;;;0.80;;
53781;SDS011;39692;53.114;7.060;2023-04-25T07:04:34;2.25;;;0.80;;
53781;SDS011;39692;53.114;7.060;2023-04-25T07:07:01;2.33;;;0.73;;
53781;SDS011;39692;53.114;7.060;2023-04-25T07:09:28;6.60;;;0.77;;
53781;SDS011;39692;53.114;7.060;2023-04-25T07:11:55;3.40;;;1.10;;
53781;SDS011;39692;53.114;7.060;2023-04-25T07:14:21;5.78;;;1.17;;
53781;SDS011;39692;53.114;7.060;2023-04-25T07:16:47;5.75;;;1.33;;
53781;SDS011;39692;53.114;7.060;2023-04-25T07:19:14;5.40;;;1.02;;
53781;SDS011;39692;53.114;7.060;2023-04-25T07:21:40;4.20;;;1.27;;
53781;SDS011;39692;53.114;7.060;2023-04-25T07:24:06;9.98;;;1.80;;
53781;SDS011;39692;53.114;7.060;2023-04-25T07:26:32;6.35;;;1.63;;
53781;SDS011;39692;53.114;7.060;2023-04-25T07:28:58;6.93;;;2.35;;
53781;SDS011;39692;53.114;7.060;2023-04-25T07:31:24;5.53;;;1.27;;
53781;SDS011;39692;53.114;7.060;2023-04-25T07:33:51;5.32;;;0.88;;
53781;SDS011;39692;53.114;7.060;2023-04-25T07:36:17;4.03;;;1.15;;
53781;SDS011;39692;53.114;7.060;2023-04-25T07:38:43;4.35;;;0.82;;
53781;SDS011;39692;53.114;7.060;2023-04-25T07:41:09;7.55;;;0.98;;
53781;SDS011;39692;53.114;7.060;2023-04-25T07:43:35;2.60;;;0.70;;
53781;SDS011;39692;53.114;7.060;2023-04-25T07:46:01;5.18;;;0.80;;
53781;SDS011;39692;53.114;7.060;2023-04-25T07:48:27;3.05;;;0.65;;
53781;SDS011;39692;53.114;7.060;2023-04-25T07:50:54;3.35;;;0.60;;
53781;SDS011;39692;53.114;7.060;2023-04-25T07:53:20;1.65;;;0.55;;
53781;SDS011;39692;53.114;7.060;2023-04-25T07:55:46;1.33;;;0.60;;
53781;SDS011;39692;53.114;7.060;2023-04-25T07:58:12;5.25;;;1.38;;
53781;SDS011;39692;53.114;7.060;2023-04-25T08:00:39;6.65;;;1.08;;
53781;SDS011;39692;53.114;7.060;2023-04-25T08:03:06;4.90;;;0.82;;
53781;SDS011;39692;53.114;7.060;2023-04-25T08:05:32;5.20;;;1.02;;
53781;SDS011;39692;53.114;7.060;2023-04-25T08:07:58;2.88;;;1.00;;
53781;SDS011;39692;53.114;7.060;2023-04-25T08:10:25;3.13;;;1.20;;
53781;SDS011;39692;53.114;7.060;2023-04-25T08:12:51;8.57;;;1.80;;
53781;SDS011;39692;53.114;7.060;2023-04-25T08:15:17;4.38;;;1.63;;
53781;SDS011;39692;53.114;7.060;2023-04-25T08:17:43;5.15;;;1.83;;
53781;SDS011;39692;53.114;7.060;2023-04-25T08:20:10;4.47;;;1.50;;
53781;SDS011;39692;53.114;7.060;2023-04-25T08:22:36;4.35;;;1.20;;
53781;SDS011;39692;53.114;7.060;2023-04-25T08:25:02;6.65;;;1.85;;
53781;SDS011;39692;53.114;7.060;2023-04-25T08:27:28;4.38;;;1.50;;
53781;SDS011;39692;53.114;7.060;2023-04-25T08:29:55;6.78;;;1.50;;
53781;SDS011;39692;53.114;7.060;2023-04-25T08:32:21;5.90;;;1.48;;
53781;SDS011;39692;53.114;7.060;2023-04-25T08:34:47;5.32;;;1.80;;
53781;SDS011;39692;53.114;7.060;2023-04-25T08:37:13;5.13;;;1.40;;
53781;SDS011;39692;53.114;7.060;2023-04-25T08:39:39;4.57;;;1.42;;
53781;SDS011;39692;53.114;7.060;2023-04-25T08:42:07;4.73;;;1.70;;
53781;SDS011;39692;53.114;7.060;2023-04-25T08:44:33;4.18;;;1.30;;
53781;SDS011;39692;53.114;7.060;2023-04-25T08:47:02;6.70;;;1.25;;
53781;SDS011;39692;53.114;7.060;2023-04-25T08:49:29;6.38;;;1.40;;
53781;SDS011;39692;53.114;7.060;2023-04-25T08:51:56;2.45;;;0.82;;
53781;SDS011;39692;53.114;7.060;2023-04-25T08:54:24;3.25;;;0.50;;
53781;SDS011;39692;53.114;7.060;2023-04-25T08:56:54;3.08;;;0.70;;
53781;SDS011;39692;53.114;7.060;2023-04-25T08:59:21;2.28;;;0.70;;
53781;SDS011;39692;53.114;7.060;2023-04-25T09:01:48;3.70;;;0.73;;
53781;SDS011;39692;53.114;7.060;2023-04-25T09:04:15;1.40;;;0.50;;
53781;SDS011;39692;53.114;7.060;2023-04-25T09:06:41;1.13;;;0.60;;
53781;SDS011;39692;53.114;7.060;2023-04-25T09:09:07;2.60;;;0.52;;
53781;SDS011;39692;53.114;7.060;2023-04-25T09:11:36;0.93;;;0.47;;
53781;SDS011;39692;53.114;7.060;2023-04-25T09:19:25;4.43;;;1.02;;
53781;SDS011;39692;53.114;7.060;2023-04-25T09:21:55;3.30;;;0.90;;
53781;SDS011;39692;53.114;7.060;2023-04-25T09:26:57;4.75;;;0.82;;
53781;SDS011;39692;53.114;7.060;2023-04-25T09:29:30;5.95;;;0.80;;
53781;SDS011;39692;53.114;7.060;2023-04-25T09:34:41;2.13;;;1.25;;
53781;SDS011;39692;53.114;7.060;2023-04-25T09:37:11;4.93;;;1.15;;
53781;SDS011;39692;53.114;7.060;2023-04-25T09:39:37;4.93;;;1.83;;
53781;SDS011;39692;53.114;7.060;2023-04-25T09:42:04;6.35;;;1.80;;
53781;SDS011;39692;53.114;7.060;2023-04-25T09:44:30;7.05;;;2.13;;
53781;SDS011;39692;53.114;7.060;2023-04-25T09:46:56;4.10;;;1.40;;
53781;SDS011;39692;53.114;7.060;2023-04-25T09:49:24;4.68;;;1.30;;
53781;SDS011;39692;53.114;7.060;2023-04-25T09:51:59;5.68;;;1.60;;
53781;SDS011;39692;53.114;7.060;2023-04-25T09:54:31;4.47;;;1.98;;
53781;SDS011;39692;53.114;7.060;2023-04-25T09:56:58;5.80;;;1.50;;
53781;SDS011;39692;53.114;7.060;2023-04-25T09:59:25;5.47;;;1.65;;
53781;SDS011;39692;53.114;7.060;2023-04-25T10:01:53;4.28;;;1.33;;
53781;SDS011;39692;53.114;7.060;2023-04-25T10:04:24;3.65;;;1.50;;
53781;SDS011;39692;53.114;7.060;2023-04-25T10:06:53;5.40;;;1.48;;
53781;SDS011;39692;53.114;7.060;2023-04-25T10:09:20;6.97;;;2.00;;
53781;SDS011;39692;53.114;7.060;2023-04-25T10:11:47;7.05;;;1.30;;
53781;SDS011;39692;53.114;7.060;2023-04-25T10:14:14;3.88;;;1.50;;
53781;SDS011;39692;53.114;7.060;2023-04-25T10:16:40;4.28;;;1.40;;
53781;SDS011;39692;53.114;7.060;2023-04-25T10:19:07;3.83;;;1.55;;
53781;SDS011;39692;53.114;7.060;2023-04-25T10:21:33;4.63;;;1.65;;
53781;SDS011;39692;53.114;7.060;2023-04-25T10:24:00;5.13;;;1.55;;
53781;SDS011;39692;53.114;7.060;2023-04-25T10:26:26;4.75;;;1.35;;
53781;SDS011;39692;53.114;7.060;2023-04-25T10:29:02;5.75;;;1.88;;
53781;SDS011;39692;53.114;7.060;2023-04-25T10:31:29;6.60;;;1.55;;
53781;SDS011;39692;53.114;7.060;2023-04-25T10:33:55;7.38;;;1.58;;
53781;SDS011;39692;53.114;7.060;2023-04-25T10:36:22;5.35;;;1.40;;
53781;SDS011;39692;53.114;7.060;2023-04-25T10:38:49;4.80;;;1.10;;
53781;SDS011;39692;53.114;7.060;2023-04-25T10:41:17;5.57;;;1.30;;
53781;SDS011;39692;53.114;7.060;2023-04-25T10:43:47;5.60;;;1.70;;
53781;SDS011;39692;53.114;7.060;2023-04-25T10:46:15;5.63;;;1.30;;
53781;SDS011;39692;53.114;7.060;2023-04-25T10:48:48;4.75;;;1.55;;
53781;SDS011;39692;53.114;7.060;2023-04-25T10:51:21;3.15;;;1.00;;
53781;SDS011;39692;53.114;7.060;2023-04-25T10:53:56;3.03;;;1.02;;
53781;SDS011;39692;53.114;7.060;2023-04-25T10:56:23;2.72;;;1.02;;
53781;SDS011;39692;53.114;7.060;2023-04-25T10:58:50;4.43;;;1.05;;
53781;SDS011;39692;53.114;7.060;2023-04-25T11:01:20;4.30;;;1.38;;
53781;SDS011;39692;53.114;7.060;2023-04-25T11:03:46;3.65;;;0.98;;
53781;SDS011;39692;53.114;7.060;2023-04-25T11:09:02;2.10;;;0.73;;
53781;SDS011;39692;53.114;7.060;2023-04-25T11:11:28;3.58;;;1.05;;
53781;SDS011;39692;53.114;7.060;2023-04-25T11:13:55;4.03;;;0.90;;
53781;SDS011;39692;53.114;7.060;2023-04-25T11:16:23;3.85;;;1.10;;
53781;SDS011;39692;53.114;7.060;2023-04-25T11:18:50;5.15;;;1.20;;
53781;SDS011;39692;53.114;7.060;2023-04-25T11:21:16;3.45;;;1.08;;
53781;SDS011;39692;53.114;7.060;2023-04-25T11:23:44;4.35;;;1.40;;
53781;SDS011;39692;53.114;7.060;2023-04-25T11:26:10;3.67;;;1.23;;
53781;SDS011;39692;53.114;7.060;2023-04-25T11:28:36;5.40;;;1.20;;
53781;SDS011;39692;53.114;7.060;2023-04-25T11:31:02;4.43;;;1.27;;
53781;SDS011;39692;53.114;7.060;2023-04-25T11:33:30;3.97;;;1.55;;
53781;SDS011;39692;53.114;7.060;2023-04-25T11:35:56;3.95;;;1.20;;
53781;SDS011;39692;53.114;7.060;2023-04-25T11:38:22;4.97;;;1.30;;
53781;SDS011;39692;53.114;7.060;2023-04-25T11:40:52;3.38;;;1.23;;
53781;SDS011;39692;53.114;7.060;2023-04-25T11:43:21;3.42;;;1.27;;
53781;SDS011;39692;53.114;7.060;2023-04-25T11:45:48;4.95;;;1.73;;
53781;SDS011;39692;53.114;7.060;2023-04-25T11:48:15;4.40;;;1.42;;
53781;SDS011;39692;53.114;7.060;2023-04-25T11:50:41;3.20;;;1.10;;
53781;SDS011;39692;53.114;7.060;2023-04-25T11:53:07;5.18;;;1.48;;
53781;SDS011;39692;53.114;7.060;2023-04-25T11:55:34;5.35;;;1.40;;
53781;SDS011;39692;53.114;7.060;2023-04-25T11:58:01;5.47;;;1.48;;
53781;SDS011;39692;53.114;7.060;2023-04-25T12:00:28;2.90;;;1.23;;
53781;SDS011;39692;53.114;7.060;2023-04-25T12:02:55;4.35;;;1.15;;
53781;SDS011;39692;53.114;7.060;2023-04-25T12:05:27;2.45;;;1.25;;
53781;SDS011;39692;53.114;7.060;2023-04-25T12:07:53;4.00;;;1.02;;
53781;SDS011;39692;53.114;7.060;2023-04-25T12:10:20;5.72;;;1.33;;
53781;SDS011;39692;53.114;7.060;2023-04-25T12:12:46;5.22;;;1.35;;
53781;SDS011;39692;53.114;7.060;2023-04-25T12:15:14;4.82;;;1.10;;
53781;SDS011;39692;53.114;7.060;2023-04-25T12:17:41;4.43;;;1.38;;
53781;SDS011;39692;53.114;7.060;2023-04-25T12:20:09;2.97;;;1.10;;
53781;SDS011;39692;53.114;7.060;2023-04-25T12:22:35;5.05;;;1.17;;
53781;SDS011;39692;53.114;7.060;2023-04-25T12:25:02;5.78;;;1.30;;
53781;SDS011;39692;53.114;7.060;2023-04-25T12:27:30;4.25;;;1.38;;
53781;SDS011;39692;53.114;7.060;2023-04-25T12:29:57;4.93;;;1.38;;
53781;SDS011;39692;53.114;7.060;2023-04-25T12:32:23;4.88;;;1.50;;
53781;SDS011;39692;53.114;7.060;2023-04-25T12:34:51;5.45;;;1.52;;
53781;SDS011;39692;53.114;7.060;2023-04-25T12:37:17;4.30;;;1.20;;
53781;SDS011;39692;53.114;7.060;2023-04-25T12:39:43;4.80;;;1.20;;
53781;SDS011;39692;53.114;7.060;2023-04-25T12:42:09;4.15;;;1.80;;
53781;SDS011;39692;53.114;7.060;2023-04-25T12:44:37;4.57;;;1.30;;
53781;SDS011;39692;53.114;7.060;2023-04-25T12:47:03;5.75;;;1.10;;
53781;SDS011;39692;53.114;7.060;2023-04-25T12:49:30;6.55;;;1.60;;
53781;SDS011;39692;53.114;7.060;2023-04-25T12:51:56;6.35;;;1.70;;
53781;SDS011;39692;53.114;7.060;2023-04-25T12:54:23;6.28;;;1.40;;
53781;SDS011;39692;53.114;7.060;2023-04-25T12:56:50;3.97;;;1.15;;
53781;SDS011;39692;53.114;7.060;2023-04-25T12:59:16;4.57;;;1.15;;
53781;SDS011;39692;53.114;7.060;2023-04-25T13:01:43;2.90;;;1.20;;
53781;SDS011;39692;53.114;7.060;2023-04-25T13:04:10;5.03;;;1.20;;
53781;SDS011;39692;53.114;7.060;2023-04-25T13:06:36;5.32;;;1.40;;
53781;SDS011;39692;53.114;7.060;2023-04-25T13:09:02;3.67;;;1.40;;
53781;SDS011;39692;53.114;7.060;2023-04-25T13:11:29;5.07;;;1.27;;
53781;SDS011;39692;53.114;7.060;2023-04-25T13:13:56;4.38;;;1.05;;
53781;SDS011;39692;53.114;7.060;2023-04-25T13:16:22;3.05;;;1.13;;
53781;SDS011;39692;53.114;7.060;2023-04-25T13:18:48;6.60;;;1.58;;
53781;SDS011;39692;53.114;7.060;2023-04-25T13:21:15;7.40;;;1.40;;
53781;SDS011;39692;53.114;7.060;2023-04-25T13:23:41;5.10;;;1.75;;
53781;SDS011;39692;53.114;7.060;2023-04-25T13:26:11;5.00;;;1.23;;
53781;SDS011;39692;53.114;7.060;2023-04-25T13:28:37;3.53;;;1.38;;
53781;SDS011;39692;53.114;7.060;2023-04-25T13:31:05;3.38;;;1.23;;
53781;SDS011;39692;53.114;7.060;2023-04-25T13:33:31;8.75;;;1.60;;
53781;SDS011;39692;53.114;7.060;2023-04-25T13:36:00;2.88;;;1.08;;
53781;SDS011;39692;53.114;7.060;2023-04-25T13:38:26;3.67;;;1.33;;
53781;SDS011;39692;53.114;7.060;2023-04-25T13:40:52;3.08;;;1.00;;
53781;SDS011;39692;53.114;7.060;2023-04-25T13:43:19;6.90;;;1.30;;
53781;SDS011;39692;53.114;7.060;2023-04-25T13:45:47;4.25;;;0.93;;
53781;SDS011;39692;53.114;7.060;2023-04-25T13:48:13;3.85;;;1.05;;
53781;SDS011;39692;53.114;7.060;2023-04-25T13:50:39;4.10;;;0.90;;
53781;SDS011;39692;53.114;7.060;2023-04-25T13:53:05;2.13;;;0.80;;
53781;SDS011;39692;53.114;7.060;2023-04-25T13:55:32;2.45;;;0.88;;
53781;SDS011;39692;53.114;7.060;2023-04-25T13:57:58;2.53;;;0.65;;
53781;SDS011;39692;53.114;7.060;2023-04-25T14:00:24;3.83;;;0.80;;
53781;SDS011;39692;53.114;7.060;2023-04-25T14:02:50;2.42;;;0.77;;
53781;SDS011;39692;53.114;7.060;2023-04-25T14:05:16;4.70;;;0.70;;
53781;SDS011;39692;53.114;7.060;2023-04-25T14:07:43;1.58;;;0.80;;
53781;SDS011;39692;53.114;7.060;2023-04-25T14:10:09;3.25;;;0.70;;
53781;SDS011;39692;53.114;7.060;2023-04-25T14:12:35;2.97;;;0.70;;
53781;SDS011;39692;53.114;7.060;2023-04-25T14:15:01;2.92;;;1.00;;
53781;SDS011;39692;53.114;7.060;2023-04-25T14:17:27;5.40;;;0.95;;
53781;SDS011;39692;53.114;7.060;2023-04-25T14:19:53;8.00;;;1.23;;
53781;SDS011;39692;53.114;7.060;2023-04-25T14:22:20;6.32;;;1.63;;
53781;SDS011;39692;53.114;7.060;2023-04-25T14:24:46;5.13;;;1.05;;
53781;SDS011;39692;53.114;7.060;2023-04-25T14:27:12;4.72;;;1.10;;
53781;SDS011;39692;53.114;7.060;2023-04-25T14:29:38;6.90;;;1.23;;
53781;SDS011;39692;53.114;7.060;2023-04-25T14:32:04;4.32;;;0.65;;
53781;SDS011;39692;53.114;7.060;2023-04-25T14:34:30;7.70;;;1.00;;
53781;SDS011;39692;53.114;7.060;2023-04-25T14:36:56;5.05;;;0.75;;
53781;SDS011;39692;53.114;7.060;2023-04-25T14:39:23;4.35;;;1.15;;
53781;SDS011;39692;53.114;7.060;2023-04-25T14:41:49;1.85;;;0.65;;
53781;SDS011;39692;53.114;7.060;2023-04-25T14:44:15;6.53;;;1.02;;
53781;SDS011;39692;53.114;7.060;2023-04-25T14:46:41;2.95;;;0.95;;
53781;SDS011;39692;53.114;7.060;2023-04-25T14:49:07;7.22;;;1.33;;
53781;SDS011;39692;53.114;7.060;2023-04-25T14:51:34;3.17;;;1.00;;
53781;SDS011;39692;53.114;7.060;2023-04-25T14:54:00;5.57;;;1.25;;
53781;SDS011;39692;53.114;7.060;2023-04-25T14:56:26;2.78;;;1.55;;
53781;SDS011;39692;53.114;7.060;2023-04-25T14:58:52;6.55;;;1.20;;
53781;SDS011;39692;53.114;7.060;2023-04-25T15:01:18;6.55;;;1.00;;
53781;SDS011;39692;53.114;7.060;2023-04-25T15:03:45;4.15;;;0.95;;
53781;SDS011;39692;53.114;7.060;2023-04-25T15:06:11;2.63;;;0.77;;
53781;SDS011;39692;53.114;7.060;2023-04-25T15:08:37;5.53;;;1.30;;
53781;SDS011;39692;53.114;7.060;2023-04-25T15:11:04;4.63;;;1.63;;
53781;SDS011;39692;53.114;7.060;2023-04-25T15:13:30;5.43;;;1.20;;
53781;SDS011;39692;53.114;7.060;2023-04-25T15:15:56;4.10;;;0.85;;
53781;SDS011;39692;53.114;7.060;2023-04-25T15:18:22;4.65;;;0.70;;
53781;SDS011;39692;53.114;7.060;2023-04-25T15:20:49;3.88;;;0.82;;